Flight Track Log - Related Links

Times and Time Zones

All times are in EDT time to prevent confusion due to time zone crossing. See the UAL5887 flight status page for this flight to view local times or setup timezone preferences in your user account.

Time Position Orientation Groundspeed Altitude Reporting Facility
EDT Latitude Longitude Course Direction KTS MPH feet Rate Location/Type
Thu 05:42:03 AM 42.7786 -84.6239 281° West 119 137 2,400  Level Chicago Center
Thu 05:43:04 AM 42.7797 -84.7011 271° West 200 230 4,600 2,678 Climbing Chicago Center
Thu 05:44:04 AM 42.7814 -84.7944 271° West 237 273 7,800 2,777 Climbing Chicago Center
Thu 05:45:00 AM 42.7667 -84.8856 270° West  Level FlightAware Approximate
Thu 05:45:05 AM 42.7814 -84.8864 270° West 244 281 10,200  Level Chicago Center
Thu 05:46:00 AM 42.7667 -84.9611 270° West  Level FlightAware Approximate
Thu 05:46:05 AM 42.7817 -84.9936 270° West 274 315 11,600  Level Chicago Center
Thu 05:47:00 AM 42.7718 -85.0360 281° West  Level FlightAware Approximate
Thu 05:47:06 AM 42.7831 -85.1172 271° West 314 361 12,100  Level Chicago Center
Thu 05:48:06 AM 42.7842 -85.2497 271° West 341 392 11,900 -99 Descending Chicago Center
Thu 05:49:07 AM 42.7861 -85.3817 271° West 348 400 11,900 50 Level Chicago Center
Thu 05:50:07 AM 42.7844 -85.5161 269° West 354 407 12,000  Climbing Chicago Center
Thu 05:51:07 AM 42.7597 -85.6514 256° West 369 425 11,900 -50 Descending Chicago Center
Thu 05:52:08 AM 42.7353 -85.7847 256° West 364 419 11,900  Level Chicago Center
Thu 05:53:09 AM 42.7106 -85.9186 256° West 363 418 11,900  Level Chicago Center
Thu 05:54:09 AM 42.6861 -86.0542 256° West 365 420 11,900 50 Level Chicago Center
Thu 05:55:10 AM 42.6617 -86.1881 256° West 364 419 12,000 50 Climbing Chicago Center
Thu 05:56:10 AM 42.6367 -86.3219 256° West 365 420 12,000  Level Chicago Center
Thu 05:57:11 AM 42.6114 -86.4561 256° West 365 420 12,000 -50 Level Chicago Center
Thu 05:58:11 AM 42.5869 -86.5914 256° West 369 425 11,900 -50 Descending Chicago Center
Thu 05:59:12 AM 42.5611 -86.7244 255° West 366 421 11,900 -50 Level Chicago Center
Thu 06:00:12 AM 42.5275 -86.8542 251° West 368 423 11,800 -744 Descending Chicago Center
Thu 06:01:13 AM 42.4925 -86.9828 250° West 365 420 10,400 -893 Descending Chicago Center
Thu 06:02:13 AM 42.4575 -87.1061 249° West 356 410 10,000 -198 Descending Chicago Center
Thu 06:03:14 AM 42.4250 -87.2267 250° West 347 399 10,000 -50 Level Chicago Center
Thu 06:04:14 AM 42.3931 -87.3486 251° West 344 396 9,900 -50 Descending Chicago Center
Thu 06:05:15 AM 42.3572 -87.4692 248° West 341 392 9,900 50 Level Chicago Center
Thu 06:06:15 AM 42.3031 -87.5744 235° Southwest 359 413 10,000  Climbing Chicago Center
Thu 06:07:16 AM 42.2383 -87.7014 235° Southwest 345 397 9,900 -496 Descending Chicago Center
Thu 06:08:16 AM 42.2022 -87.7975 243° Southwest 303 349 9,000 -1,339 Descending Chicago Center
Thu 06:09:17 AM 42.1781 -87.8872 250° West 269 310 7,200 -1,388 Descending Chicago Center
Thu 06:10:17 AM 42.1725 -87.9778 265° West 252 290 6,200 -992 Descending Chicago Center
Thu 06:11:18 AM 42.1664 -88.0542 264° West 231 266 5,200 -1,033 Descending Chicago Center
Thu 06:12:19 AM 42.1350 -88.0864 217° Southwest 213 245 4,100 -1,043 Descending Chicago Center
Thu 06:12:50 AM 42.1000 -88.0667 157° South 198 228 3,600 -989 Descending Chicago TRACON
Thu 06:13:50 AM 42.0667 -88.0167 132° Southeast 186 214 2,600 -900 Descending Chicago TRACON
Thu 06:14:50 AM 42.0333 -87.9833 143° Southeast 132 152 1,800 -700 Descending Chicago TRACON
Thu 06:15:50 AM 42.0167 -87.9500 124° Southeast 129 148 1,200 -600 Descending Chicago TRACON

Login

Don't have an account? Register now (free) for customized features, flight alerts, and more!